Time;durP1;ratioP1;P1;durP2;ratioP2;P2;SDS_P1;SDS_P2;PMS_P1;PMS_P2;Temp;Humidity;BMP_temperature;BMP_pressure;BME280_temperature;BME280_humidity;BME280_pressure;Samples;Min_cycle;Max_cycle;Signal;HPM_P1;HPM_P2
2023/09/17 00:00:13;;;;;;;16.27;14.40;;;;;;;;;;5104231;27;20213;-75
2023/09/17 00:02:38;;;;;;;18.17;15.23;;;;;;;;;;5118304;27;20194;-75
2023/09/17 00:05:04;;;;;;;18.33;15.02;;;;;;;;;;5136987;27;20236;-75
2023/09/17 00:07:29;;;;;;;18.45;15.13;;;;;;;;;;5116389;27;20187;-75
2023/09/17 00:09:55;;;;;;;16.90;14.73;;;;;;;;;;5121577;27;20286;-75
2023/09/17 00:12:20;;;;;;;20.25;15.27;;;;;;;;;;5122562;27;20223;-75
2023/09/17 00:14:46;;;;;;;18.27;13.95;;;;;;;;;;5134653;27;20568;-75
2023/09/17 00:17:12;;;;;;;16.92;14.80;;;;;;;;;;5123899;27;20293;-75
2023/09/17 00:19:37;;;;;;;21.83;15.90;;;;;;;;;;5130997;27;20186;-75
2023/09/17 00:22:04;;;;;;;22.00;15.43;;;;;;;;;;5125154;27;20372;-75
2023/09/17 00:24:29;;;;;;;22.40;16.38;;;;;;;;;;5119055;27;20266;-75
2023/09/17 00:26:54;;;;;;;17.80;14.68;;;;;;;;;;5115873;27;20652;-75
2023/09/17 00:29:23;;;;;;;17.33;14.10;;;;;;;;;;5137549;27;20213;-75
2023/09/17 00:31:48;;;;;;;16.90;14.38;;;;;;;;;;5118150;27;20182;-75
2023/09/17 00:34:13;;;;;;;18.55;15.98;;;;;;;;;;5150788;27;20725;-75
2023/09/17 00:36:39;;;;;;;19.00;15.63;;;;;;;;;;5133503;27;20692;-75
2023/09/17 00:39:04;;;;;;;20.75;16.55;;;;;;;;;;5113220;27;20533;-75
2023/09/17 00:41:29;;;;;;;20.13;16.17;;;;;;;;;;5144761;27;20190;-76
2023/09/17 00:43:55;;;;;;;20.30;16.02;;;;;;;;;;5119865;27;20222;-75
2023/09/17 00:46:20;;;;;;;17.70;15.10;;;;;;;;;;5130017;27;20511;-75
2023/09/17 00:48:46;;;;;;;19.27;16.50;;;;;;;;;;5122526;27;20264;-75
2023/09/17 00:51:11;;;;;;;19.35;15.88;;;;;;;;;;5128528;27;20198;-75
2023/09/17 00:53:37;;;;;;;20.65;18.45;;;;;;;;;;5123105;27;20186;-75
2023/09/17 00:56:03;;;;;;;19.02;16.25;;;;;;;;;;5138728;27;20600;-75
2023/09/17 00:58:29;;;;;;;20.38;17.40;;;;;;;;;;5146560;27;20269;-75
2023/09/17 01:00:58;;;;;;;17.70;15.85;;;;;;;;;;5120329;27;20178;-75
2023/09/17 01:03:24;;;;;;;19.40;16.58;;;;;;;;;;5136444;27;20197;-75
2023/09/17 01:05:51;;;;;;;18.40;16.08;;;;;;;;;;5123863;27;20570;-75
2023/09/17 01:08:17;;;;;;;19.10;15.70;;;;;;;;;;5122714;27;20197;-75
2023/09/17 01:10:43;;;;;;;18.88;16.00;;;;;;;;;;5135901;27;20207;-75
2023/09/17 01:13:09;;;;;;;20.27;15.80;;;;;;;;;;5114174;27;20234;-76
2023/09/17 01:15:35;;;;;;;22.10;16.83;;;;;;;;;;5123778;27;20186;-76
2023/09/17 01:18:05;;;;;;;18.85;16.85;;;;;;;;;;5121597;27;20201;-75
2023/09/17 01:20:41;;;;;;;23.80;16.88;;;;;;;;;;5123344;27;20178;-75
2023/09/17 01:24:06;;;;;;;17.67;15.80;;;;;;;;;;5141710;27;20261;-75
2023/09/17 01:26:35;;;;;;;18.83;16.90;;;;;;;;;;5027425;28;20233;-74
2023/09/17 01:29:04;;;;;;;23.02;16.90;;;;;;;;;;5025552;28;20193;-76
2023/09/17 01:31:30;;;;;;;18.30;16.20;;;;;;;;;;5087300;27;20225;-75
2023/09/17 01:33:55;;;;;;;18.40;16.30;;;;;;;;;;5108224;27;20186;-75
2023/09/17 01:36:25;;;;;;;17.63;15.30;;;;;;;;;;5139907;27;20637;-75
2023/09/17 01:38:58;;;;;;;17.02;14.88;;;;;;;;;;5104491;27;20174;-75
2023/09/17 01:41:27;;;;;;;19.77;15.68;;;;;;;;;;5137986;27;20177;-74
2023/09/17 01:43:53;;;;;;;18.10;15.23;;;;;;;;;;5133547;27;20222;-74
2023/09/17 01:46:19;;;;;;;17.67;15.00;;;;;;;;;;5131660;27;20602;-74
2023/09/17 01:48:45;;;;;;;18.00;15.15;;;;;;;;;;5131024;27;20194;-74
2023/09/17 01:51:11;;;;;;;18.77;15.25;;;;;;;;;;5122775;27;20520;-75
2023/09/17 01:53:37;;;;;;;17.98;15.95;;;;;;;;;;5136944;27;20194;-75
2023/09/17 01:56:04;;;;;;;21.17;16.63;;;;;;;;;;5138509;27;20276;-75
2023/09/17 01:58:30;;;;;;;20.17;17.17;;;;;;;;;;5146954;27;20320;-75
2023/09/17 02:00:56;;;;;;;20.67;18.00;;;;;;;;;;5140262;27;20266;-75
2023/09/17 02:03:22;;;;;;;26.23;19.17;;;;;;;;;;5150229;27;20200;-75
2023/09/17 02:05:47;;;;;;;21.38;18.13;;;;;;;;;;5143038;27;20186;-76
2023/09/17 02:08:12;;;;;;;23.40;19.10;;;;;;;;;;5135369;27;20223;-75
2023/09/17 02:10:38;;;;;;;21.10;18.70;;;;;;;;;;5115712;27;20593;-76
2023/09/17 02:13:03;;;;;;;23.70;20.05;;;;;;;;;;5126979;27;20538;-76
2023/09/17 02:15:29;;;;;;;22.27;18.77;;;;;;;;;;5148461;27;20186;-75
2023/09/17 02:17:54;;;;;;;25.90;20.92;;;;;;;;;;5127081;27;20209;-75
2023/09/17 02:20:20;;;;;;;30.00;24.08;;;;;;;;;;5147684;27;20187;-75
2023/09/17 02:22:45;;;;;;;30.25;25.25;;;;;;;;;;5128942;27;20423;-76
2023/09/17 02:25:11;;;;;;;33.63;24.88;;;;;;;;;;5130174;27;20196;-75
2023/09/17 02:27:38;;;;;;;34.65;26.98;;;;;;;;;;5134657;27;20664;-76
2023/09/17 02:30:04;;;;;;;36.20;30.17;;;;;;;;;;5144931;27;20284;-75
2023/09/17 02:32:30;;;;;;;37.40;31.02;;;;;;;;;;5106932;27;20641;-74
2023/09/17 02:34:56;;;;;;;39.50;31.95;;;;;;;;;;5139285;27;20182;-75
2023/09/17 02:37:22;;;;;;;37.33;30.08;;;;;;;;;;5146711;27;20222;-75
2023/09/17 02:39:48;;;;;;;42.33;34.53;;;;;;;;;;5143548;27;20206;-75
2023/09/17 02:42:13;;;;;;;43.53;35.13;;;;;;;;;;5142921;27;20259;-75
2023/09/17 02:44:38;;;;;;;41.50;33.67;;;;;;;;;;5120423;27;20535;-75
2023/09/17 02:47:04;;;;;;;41.38;32.50;;;;;;;;;;5110662;27;20637;-75
2023/09/17 02:49:30;;;;;;;47.50;36.45;;;;;;;;;;5145445;27;20274;-75
2023/09/17 02:51:55;;;;;;;40.92;30.85;;;;;;;;;;5140642;27;20182;-75
2023/09/17 02:54:22;;;;;;;47.22;36.85;;;;;;;;;;5122616;27;20316;-75
2023/09/17 02:56:47;;;;;;;39.83;32.97;;;;;;;;;;5143275;27;20240;-75
2023/09/17 02:59:13;;;;;;;48.35;37.90;;;;;;;;;;5110158;27;20646;-76
2023/09/17 03:01:40;;;;;;;47.65;36.10;;;;;;;;;;5131111;27;20253;-76
2023/09/17 03:04:06;;;;;;;43.10;36.58;;;;;;;;;;5143144;27;20274;-76
2023/09/17 03:06:33;;;;;;;44.95;36.30;;;;;;;;;;5126536;27;20183;-76
2023/09/17 03:08:59;;;;;;;45.38;36.55;;;;;;;;;;5144772;27;20192;-76
2023/09/17 03:11:26;;;;;;;44.50;37.72;;;;;;;;;;5135253;27;20688;-75
2023/09/17 03:13:52;;;;;;;46.95;36.42;;;;;;;;;;5136627;27;20220;-75
2023/09/17 03:16:18;;;;;;;44.92;35.20;;;;;;;;;;5140304;27;20356;-76
2023/09/17 03:18:45;;;;;;;47.30;37.75;;;;;;;;;;5129480;27;20225;-76
2023/09/17 03:21:11;;;;;;;41.70;36.30;;;;;;;;;;5120946;27;20537;-76
2023/09/17 03:23:37;;;;;;;42.95;34.88;;;;;;;;;;5124217;27;20709;-76
2023/09/17 03:26:04;;;;;;;42.90;35.47;;;;;;;;;;5113829;27;20316;-75
2023/09/17 03:28:32;;;;;;;43.25;35.00;;;;;;;;;;5110038;27;20190;-75
2023/09/17 03:30:58;;;;;;;43.03;36.88;;;;;;;;;;5132828;27;20262;-75
2023/09/17 03:33:24;;;;;;;43.90;36.28;;;;;;;;;;5111787;27;20190;-75
2023/09/17 03:35:51;;;;;;;47.88;37.55;;;;;;;;;;5136592;27;20587;-75
2023/09/17 03:38:16;;;;;;;43.58;36.35;;;;;;;;;;5151623;27;20189;-75
2023/09/17 03:40:42;;;;;;;52.33;37.80;;;;;;;;;;5142991;27;20191;-75
2023/09/17 03:43:08;;;;;;;46.85;37.60;;;;;;;;;;5148030;27;20582;-75
2023/09/17 03:45:33;;;;;;;48.42;38.05;;;;;;;;;;5141002;27;20190;-75
2023/09/17 03:47:59;;;;;;;41.40;36.05;;;;;;;;;;5119806;27;20251;-74
2023/09/17 03:50:25;;;;;;;49.83;38.05;;;;;;;;;;5117016;27;20630;-74
2023/09/17 03:52:53;;;;;;;50.30;38.33;;;;;;;;;;5147794;27;20190;-74
2023/09/17 03:55:20;;;;;;;52.70;38.45;;;;;;;;;;5141803;27;20190;-74
2023/09/17 03:57:46;;;;;;;46.22;35.72;;;;;;;;;;5124860;27;20194;-74
2023/09/17 04:00:12;;;;;;;44.72;36.72;;;;;;;;;;5131930;27;20203;-74
2023/09/17 04:02:38;;;;;;;49.67;39.00;;;;;;;;;;5112968;27;20624;-75
2023/09/17 04:05:09;;;;;;;49.35;37.40;;;;;;;;;;5115221;27;20187;-74
2023/09/17 04:07:35;;;;;;;50.78;37.33;;;;;;;;;;5147258;27;20276;-73
2023/09/17 04:10:02;;;;;;;49.10;39.92;;;;;;;;;;5140386;27;20633;-73
2023/09/17 04:12:28;;;;;;;48.75;38.10;;;;;;;;;;5111042;27;20542;-74
2023/09/17 04:14:55;;;;;;;48.30;38.88;;;;;;;;;;5132519;27;20274;-74
2023/09/17 04:17:20;;;;;;;45.35;37.45;;;;;;;;;;5139575;27;20731;-74
2023/09/17 04:19:45;;;;;;;44.78;36.75;;;;;;;;;;5152372;27;20186;-73
2023/09/17 04:22:11;;;;;;;44.60;36.55;;;;;;;;;;5124158;27;20273;-73
2023/09/17 04:24:38;;;;;;;49.20;36.83;;;;;;;;;;5137852;27;20183;-73
2023/09/17 04:27:04;;;;;;;43.63;33.75;;;;;;;;;;5117093;27;20229;-73
2023/09/17 04:29:29;;;;;;;40.92;33.25;;;;;;;;;;5121843;27;20556;-73
2023/09/17 04:31:54;;;;;;;43.03;33.22;;;;;;;;;;5146334;27;20201;-74
2023/09/17 04:34:20;;;;;;;41.75;32.50;;;;;;;;;;5118356;27;20195;-73
2023/09/17 04:36:47;;;;;;;42.10;33.08;;;;;;;;;;5136805;27;20218;-74
2023/09/17 04:39:14;;;;;;;40.22;31.20;;;;;;;;;;5135213;27;20566;-74
2023/09/17 04:41:40;;;;;;;40.17;31.85;;;;;;;;;;5138835;27;20254;-74
2023/09/17 04:44:07;;;;;;;47.63;31.95;;;;;;;;;;5143616;27;20274;-74
2023/09/17 04:46:34;;;;;;;38.33;31.27;;;;;;;;;;5105321;27;20258;-74
2023/09/17 04:48:59;;;;;;;35.22;29.40;;;;;;;;;;5150728;27;20206;-73
2023/09/17 04:51:27;;;;;;;37.00;29.65;;;;;;;;;;5134927;27;20650;-74
2023/09/17 04:53:52;;;;;;;37.15;30.40;;;;;;;;;;5139758;27;20182;-74
2023/09/17 04:56:18;;;;;;;43.30;31.00;;;;;;;;;;5128153;27;20266;-73
2023/09/17 04:58:43;;;;;;;38.55;31.33;;;;;;;;;;5123076;27;20315;-73
2023/09/17 05:01:09;;;;;;;40.05;30.33;;;;;;;;;;5130491;27;20195;-72
2023/09/17 05:03:35;;;;;;;36.10;28.73;;;;;;;;;;5140992;27;20177;-73
2023/09/17 05:06:00;;;;;;;36.47;29.30;;;;;;;;;;5131705;27;20183;-73
2023/09/17 05:08:26;;;;;;;37.75;30.23;;;;;;;;;;5134336;27;20194;-73
2023/09/17 05:10:52;;;;;;;33.70;27.65;;;;;;;;;;5124074;27;20305;-73
2023/09/17 05:13:18;;;;;;;39.03;29.30;;;;;;;;;;5151026;27;20294;-74
2023/09/17 05:15:43;;;;;;;35.95;28.08;;;;;;;;;;5119349;27;20231;-73
2023/09/17 05:18:11;;;;;;;37.55;28.65;;;;;;;;;;5146225;27;20217;-73
2023/09/17 05:20:43;;;;;;;35.53;28.38;;;;;;;;;;5143983;27;20582;-73
2023/09/17 05:23:09;;;;;;;39.95;29.42;;;;;;;;;;5120652;27;20185;-73
2023/09/17 05:25:35;;;;;;;35.88;28.30;;;;;;;;;;5142715;27;20186;-74
2023/09/17 05:28:03;;;;;;;39.10;28.80;;;;;;;;;;5144443;27;20660;-74
2023/09/17 05:30:28;;;;;;;39.13;31.00;;;;;;;;;;5139951;27;20229;-73
2023/09/17 05:32:54;;;;;;;39.17;30.02;;;;;;;;;;5142296;27;20650;-73
2023/09/17 05:35:19;;;;;;;38.83;29.83;;;;;;;;;;5134251;27;20237;-74
2023/09/17 05:37:45;;;;;;;36.92;29.77;;;;;;;;;;5125920;27;20205;-73
2023/09/17 05:40:10;;;;;;;38.33;30.48;;;;;;;;;;5121008;27;20256;-73
2023/09/17 05:42:36;;;;;;;37.55;31.17;;;;;;;;;;5118659;27;20194;-73
2023/09/17 05:45:01;;;;;;;37.00;30.48;;;;;;;;;;5139177;27;20633;-75
2023/09/17 05:47:26;;;;;;;40.53;31.83;;;;;;;;;;5112776;28;20239;-74
2023/09/17 05:49:55;;;;;;;35.05;28.50;;;;;;;;;;5120139;27;20202;-74
2023/09/17 05:52:21;;;;;;;39.50;30.33;;;;;;;;;;5128706;27;20182;-74
2023/09/17 05:54:46;;;;;;;39.53;30.75;;;;;;;;;;5135111;27;20213;-74
2023/09/17 05:57:11;;;;;;;37.35;31.02;;;;;;;;;;5096764;28;20226;-74
2023/09/17 05:59:37;;;;;;;40.70;31.73;;;;;;;;;;5100019;27;20184;-74
2023/09/17 06:02:03;;;;;;;36.67;29.85;;;;;;;;;;5103026;28;20202;-74
2023/09/17 06:04:28;;;;;;;36.45;30.42;;;;;;;;;;5093431;28;20789;-74
2023/09/17 06:06:53;;;;;;;39.65;30.60;;;;;;;;;;5108551;28;20183;-74
2023/09/17 06:09:19;;;;;;;35.15;29.88;;;;;;;;;;5095082;28;20199;-74
2023/09/17 06:11:44;;;;;;;38.50;31.08;;;;;;;;;;5109927;28;20327;-74
2023/09/17 06:14:09;;;;;;;37.20;31.38;;;;;;;;;;5104100;28;20673;-74
2023/09/17 06:16:35;;;;;;;41.40;31.75;;;;;;;;;;5104580;28;20350;-74
2023/09/17 06:19:00;;;;;;;44.42;33.30;;;;;;;;;;5107635;27;20743;-74
2023/09/17 06:21:26;;;;;;;46.60;33.25;;;;;;;;;;5075326;28;20190;-74
2023/09/17 06:23:51;;;;;;;43.35;33.20;;;;;;;;;;5093524;28;20203;-74
2023/09/17 06:26:16;;;;;;;41.63;32.88;;;;;;;;;;5125641;27;20237;-74
2023/09/17 06:28:42;;;;;;;43.15;34.08;;;;;;;;;;5116162;27;20184;-74
2023/09/17 06:31:07;;;;;;;42.38;34.13;;;;;;;;;;5097975;28;20261;-74
2023/09/17 06:33:35;;;;;;;39.67;33.70;;;;;;;;;;5106339;28;20198;-74
2023/09/17 06:36:00;;;;;;;41.83;34.20;;;;;;;;;;5104561;28;20268;-74
2023/09/17 06:38:25;;;;;;;45.50;37.47;;;;;;;;;;5110534;27;20218;-74
2023/09/17 06:40:51;;;;;;;48.97;38.08;;;;;;;;;;5110679;27;20191;-74
2023/09/17 06:43:17;;;;;;;47.58;36.72;;;;;;;;;;5114604;27;20299;-74
2023/09/17 06:45:42;;;;;;;49.80;37.83;;;;;;;;;;5092830;28;20195;-74
2023/09/17 06:48:07;;;;;;;53.95;40.65;;;;;;;;;;5107569;28;20665;-74
2023/09/17 06:50:33;;;;;;;56.17;40.45;;;;;;;;;;5100316;28;20678;-73
2023/09/17 06:52:58;;;;;;;60.67;41.53;;;;;;;;;;5108064;28;20191;-74
2023/09/17 06:55:23;;;;;;;54.45;41.85;;;;;;;;;;5108667;27;20187;-73
2023/09/17 06:57:49;;;;;;;56.47;42.13;;;;;;;;;;5149220;27;20597;-73
2023/09/17 07:00:15;;;;;;;42.97;33.67;;;;;;;;;;5143123;27;20194;-73
2023/09/17 07:02:41;;;;;;;58.90;43.00;;;;;;;;;;5143627;27;20278;-73
2023/09/17 07:05:08;;;;;;;51.80;39.03;;;;;;;;;;5123892;27;20286;-73
2023/09/17 07:07:34;;;;;;;52.78;39.60;;;;;;;;;;5123086;27;20186;-73
2023/09/17 07:10:00;;;;;;;52.63;39.15;;;;;;;;;;5124597;27;20213;-73
2023/09/17 07:12:25;;;;;;;54.42;41.40;;;;;;;;;;5142172;27;20187;-74
2023/09/17 07:14:51;;;;;;;53.08;39.83;;;;;;;;;;5148983;27;20250;-73
2023/09/17 07:17:16;;;;;;;54.00;41.55;;;;;;;;;;5145108;27;20782;-74
2023/09/17 07:19:41;;;;;;;49.90;40.45;;;;;;;;;;5120903;27;20266;-74
2023/09/17 07:22:11;;;;;;;55.05;42.05;;;;;;;;;;5139309;27;20505;-74
2023/09/17 07:24:37;;;;;;;57.03;43.17;;;;;;;;;;5123193;27;20224;-74
2023/09/17 07:27:03;;;;;;;55.10;43.72;;;;;;;;;;5144143;27;20691;-74
2023/09/17 07:29:29;;;;;;;54.65;41.80;;;;;;;;;;5122852;27;20217;-73
2023/09/17 07:31:54;;;;;;;54.58;41.75;;;;;;;;;;5111721;27;20546;-74
2023/09/17 07:34:20;;;;;;;50.63;37.58;;;;;;;;;;5115088;27;20575;-74
2023/09/17 07:36:45;;;;;;;55.50;41.22;;;;;;;;;;5119134;27;20249;-74
2023/09/17 07:39:10;;;;;;;52.80;40.03;;;;;;;;;;5123010;27;20193;-75
2023/09/17 07:41:36;;;;;;;54.17;40.75;;;;;;;;;;5143291;27;20197;-73
2023/09/17 07:44:01;;;;;;;56.00;40.17;;;;;;;;;;5106152;27;20645;-74
2023/09/17 07:46:26;;;;;;;52.17;41.22;;;;;;;;;;5124047;27;20178;-74
2023/09/17 07:48:52;;;;;;;52.22;40.33;;;;;;;;;;5139471;27;20411;-74
2023/09/17 07:51:18;;;;;;;53.45;40.53;;;;;;;;;;5122228;27;20217;-74
2023/09/17 07:53:43;;;;;;;55.80;41.25;;;;;;;;;;5139959;27;20189;-75
2023/09/17 07:56:10;;;;;;;56.25;42.33;;;;;;;;;;5123643;27;20325;-75
2023/09/17 07:58:36;;;;;;;52.75;41.90;;;;;;;;;;5104169;27;20205;-75
2023/09/17 08:01:04;;;;;;;50.13;39.70;;;;;;;;;;5142633;27;20257;-75
2023/09/17 08:03:30;;;;;;;53.20;42.13;;;;;;;;;;5140223;27;20193;-75
2023/09/17 08:05:56;;;;;;;54.08;42.22;;;;;;;;;;5139225;27;20186;-74
2023/09/17 08:08:22;;;;;;;52.00;42.25;;;;;;;;;;5108046;27;20553;-75
2023/09/17 08:10:49;;;;;;;52.60;43.53;;;;;;;;;;5116032;27;20209;-75
2023/09/17 08:13:14;;;;;;;55.58;44.13;;;;;;;;;;5121281;27;20646;-75
2023/09/17 08:15:40;;;;;;;56.03;43.47;;;;;;;;;;5121246;27;20213;-75
2023/09/17 08:18:06;;;;;;;58.92;43.05;;;;;;;;;;5136860;27;20522;-75
2023/09/17 08:20:32;;;;;;;57.30;42.88;;;;;;;;;;5140803;27;20602;-75
2023/09/17 08:22:58;;;;;;;53.85;40.60;;;;;;;;;;5127499;27;20179;-74
2023/09/17 08:25:26;;;;;;;55.90;41.70;;;;;;;;;;5137856;27;20191;-75
2023/09/17 08:27:52;;;;;;;58.88;44.22;;;;;;;;;;5113150;27;20533;-75
2023/09/17 08:30:19;;;;;;;54.50;43.70;;;;;;;;;;5121606;27;20311;-74
2023/09/17 08:32:44;;;;;;;56.40;43.20;;;;;;;;;;5114126;27;20346;-75
2023/09/17 08:35:14;;;;;;;57.35;44.42;;;;;;;;;;5134184;27;20266;-75
2023/09/17 08:37:40;;;;;;;54.75;44.58;;;;;;;;;;5135175;27;20186;-75
2023/09/17 08:40:10;;;;;;;54.55;43.10;;;;;;;;;;5138169;27;20595;-75
2023/09/17 08:42:41;;;;;;;56.88;44.42;;;;;;;;;;5122395;27;20513;-75
2023/09/17 08:45:08;;;;;;;59.17;46.45;;;;;;;;;;5144978;27;20363;-74
2023/09/17 08:47:33;;;;;;;60.33;46.47;;;;;;;;;;5127539;27;20187;-75
2023/09/17 08:49:59;;;;;;;55.67;44.53;;;;;;;;;;5111757;27;20218;-76
2023/09/17 08:52:26;;;;;;;56.97;44.10;;;;;;;;;;5134384;27;20299;-76
2023/09/17 08:54:53;;;;;;;55.95;44.05;;;;;;;;;;5111577;27;20191;-76
2023/09/17 08:57:23;;;;;;;59.63;46.28;;;;;;;;;;5111470;27;20230;-76
2023/09/17 08:59:56;;;;;;;59.40;44.85;;;;;;;;;;5113086;27;20191;-76
2023/09/17 09:02:28;;;;;;;61.22;46.40;;;;;;;;;;5111431;27;20193;-76
2023/09/17 09:04:54;;;;;;;59.38;45.35;;;;;;;;;;5109817;27;20718;-76
2023/09/17 09:07:22;;;;;;;59.42;44.20;;;;;;;;;;5111782;27;20183;-76
2023/09/17 09:09:51;;;;;;;53.92;43.40;;;;;;;;;;5121408;27;20641;-76
2023/09/17 09:12:18;;;;;;;52.45;42.70;;;;;;;;;;5121323;27;20184;-76
2023/09/17 09:14:44;;;;;;;53.17;41.88;;;;;;;;;;5109330;28;20187;-76
2023/09/17 09:17:11;;;;;;;53.50;41.35;;;;;;;;;;5111419;27;20281;-76
2023/09/17 09:19:36;;;;;;;51.05;39.95;;;;;;;;;;5115330;27;20198;-76
2023/09/17 09:22:02;;;;;;;49.33;41.85;;;;;;;;;;5112691;27;20266;-76
2023/09/17 09:24:47;;;;;;;50.53;41.45;;;;;;;;;;5102818;27;20184;-76
2023/09/17 09:27:13;;;;;;;50.53;39.47;;;;;;;;;;5112179;27;20199;-76
2023/09/17 09:29:42;;;;;;;41.88;35.22;;;;;;;;;;5116945;27;20618;-77
2023/09/17 09:32:11;;;;;;;47.10;38.67;;;;;;;;;;5105557;28;20278;-77
2023/09/17 09:34:41;;;;;;;50.13;39.83;;;;;;;;;;5124917;27;20190;-77
2023/09/17 09:37:08;;;;;;;50.92;40.72;;;;;;;;;;5125045;27;20186;-76
2023/09/17 09:39:35;;;;;;;51.90;40.00;;;;;;;;;;5105714;28;20182;-76
2023/09/17 09:42:04;;;;;;;46.53;38.05;;;;;;;;;;5111347;27;20277;-76
2023/09/17 09:44:30;;;;;;;46.47;37.85;;;;;;;;;;5095150;27;20198;-76
2023/09/17 09:46:57;;;;;;;45.00;37.67;;;;;;;;;;5110931;28;20185;-76
2023/09/17 09:49:23;;;;;;;45.40;36.33;;;;;;;;;;5110127;28;20195;-76
2023/09/17 09:51:49;;;;;;;43.67;36.63;;;;;;;;;;5114634;28;20186;-76
2023/09/17 09:54:14;;;;;;;44.67;36.85;;;;;;;;;;5097830;28;20636;-76
2023/09/17 09:56:40;;;;;;;40.75;34.42;;;;;;;;;;5128539;27;20227;-76
2023/09/17 09:59:06;;;;;;;46.08;37.03;;;;;;;;;;5135907;27;20190;-76
2023/09/17 10:01:36;;;;;;;40.00;34.88;;;;;;;;;;5135778;27;20269;-76
2023/09/17 10:04:05;;;;;;;44.25;35.83;;;;;;;;;;5110127;28;20217;-75
2023/09/17 10:06:30;;;;;;;44.08;35.50;;;;;;;;;;5115717;27;20198;-75
2023/09/17 10:08:58;;;;;;;42.80;35.88;;;;;;;;;;5139560;27;20191;-75
2023/09/17 10:11:23;;;;;;;45.58;37.72;;;;;;;;;;5147753;27;20236;-75
2023/09/17 10:13:52;;;;;;;42.00;36.65;;;;;;;;;;5137936;27;20769;-75
2023/09/17 10:16:19;;;;;;;43.05;36.15;;;;;;;;;;5115739;27;20183;-76
2023/09/17 10:18:45;;;;;;;45.35;36.45;;;;;;;;;;5106692;27;20213;-76
2023/09/17 10:21:13;;;;;;;44.60;36.92;;;;;;;;;;5124636;28;20644;-76
2023/09/17 10:23:39;;;;;;;43.58;35.42;;;;;;;;;;5129743;27;20547;-76
2023/09/17 10:26:05;;;;;;;42.35;35.70;;;;;;;;;;5134635;27;20691;-76
2023/09/17 10:28:34;;;;;;;43.45;36.30;;;;;;;;;;5117387;27;20241;-75
2023/09/17 10:31:01;;;;;;;44.55;36.72;;;;;;;;;;5116696;27;20297;-76
2023/09/17 10:33:29;;;;;;;46.20;38.15;;;;;;;;;;5112959;28;20186;-75
2023/09/17 10:35:59;;;;;;;49.35;39.95;;;;;;;;;;5132995;27;20666;-75
2023/09/17 10:38:27;;;;;;;48.22;39.22;;;;;;;;;;5128284;27;20212;-75
2023/09/17 10:40:54;;;;;;;45.53;38.05;;;;;;;;;;5122361;27;20182;-76
2023/09/17 10:43:22;;;;;;;44.47;36.08;;;;;;;;;;5132964;27;20224;-76
2023/09/17 10:45:49;;;;;;;46.40;37.00;;;;;;;;;;5127884;27;20626;-75
2023/09/17 10:48:16;;;;;;;42.70;35.90;;;;;;;;;;5119445;27;20616;-76
2023/09/17 10:50:42;;;;;;;40.90;35.83;;;;;;;;;;5143923;27;20217;-76
2023/09/17 10:53:07;;;;;;;42.92;33.70;;;;;;;;;;5124252;27;20195;-76
2023/09/17 10:55:36;;;;;;;37.97;31.88;;;;;;;;;;5139166;27;20186;-76
2023/09/17 10:58:24;;;;;;;36.60;31.83;;;;;;;;;;5130415;27;20175;-76
2023/09/17 11:00:51;;;;;;;39.75;32.00;;;;;;;;;;5114435;27;20685;-76
2023/09/17 11:03:20;;;;;;;39.00;31.83;;;;;;;;;;5130508;27;20578;-76
2023/09/17 11:05:46;;;;;;;39.15;32.63;;;;;;;;;;4417086;27;10000757;-76
2023/09/17 11:08:11;;;;;;;36.25;31.00;;;;;;;;;;5116772;27;20246;-76
2023/09/17 11:10:41;;;;;;;37.75;29.65;;;;;;;;;;5107923;27;20224;-76
2023/09/17 11:13:12;;;;;;;33.53;29.02;;;;;;;;;;5121774;27;20195;-76
2023/09/17 11:15:39;;;;;;;30.92;26.30;;;;;;;;;;5110325;27;20960;-75
2023/09/17 11:18:07;;;;;;;30.45;24.98;;;;;;;;;;5141098;27;20209;-75
2023/09/17 11:20:32;;;;;;;28.67;25.10;;;;;;;;;;5105514;27;20187;-76
2023/09/17 11:22:58;;;;;;;28.83;25.55;;;;;;;;;;5115960;27;20219;-75
2023/09/17 11:25:34;;;;;;;24.92;21.33;;;;;;;;;;5128072;27;20208;-75
2023/09/17 11:28:09;;;;;;;30.48;24.90;;;;;;;;;;5140093;27;20190;-71
2023/09/17 11:30:56;;;;;;;29.05;24.20;;;;;;;;;;5145671;27;20300;-74
2023/09/17 11:33:22;;;;;;;30.50;24.95;;;;;;;;;;5113366;27;20178;-75
2023/09/17 11:35:48;;;;;;;31.50;25.55;;;;;;;;;;5136344;27;20314;-74
2023/09/17 11:38:13;;;;;;;30.27;26.70;;;;;;;;;;5111698;27;20285;-75
2023/09/17 11:40:40;;;;;;;32.25;25.42;;;;;;;;;;5137223;27;20255;-75
2023/09/17 11:43:05;;;;;;;31.90;25.60;;;;;;;;;;5129892;27;20174;-75
2023/09/17 11:45:33;;;;;;;31.58;27.67;;;;;;;;;;5137333;27;20289;-75
2023/09/17 11:48:01;;;;;;;29.38;26.17;;;;;;;;;;5130551;27;20322;-73
2023/09/17 11:50:26;;;;;;;30.17;26.33;;;;;;;;;;5125063;27;20752;-75
2023/09/17 11:53:06;;;;;;;29.15;26.15;;;;;;;;;;5121663;27;20277;-75
2023/09/17 11:55:32;;;;;;;31.55;27.02;;;;;;;;;;5122047;27;20203;-74
2023/09/17 11:58:16;;;;;;;31.77;28.20;;;;;;;;;;5127863;27;20198;-73
2023/09/17 12:00:41;;;;;;;29.25;26.15;;;;;;;;;;5143165;27;20308;-75
2023/09/17 12:03:09;;;;;;;28.05;22.73;;;;;;;;;;5117382;27;20261;-75
2023/09/17 12:05:35;;;;;;;29.77;25.83;;;;;;;;;;5123012;27;20234;-73
2023/09/17 12:08:01;;;;;;;30.02;25.60;;;;;;;;;;5130650;27;20178;-72
2023/09/17 12:10:28;;;;;;;26.40;23.65;;;;;;;;;;5131167;27;20674;-75
2023/09/17 12:12:54;;;;;;;27.40;24.58;;;;;;;;;;5115257;27;20194;-74
2023/09/17 12:15:20;;;;;;;27.50;24.63;;;;;;;;;;5133959;27;20198;-75
2023/09/17 12:17:45;;;;;;;27.15;24.23;;;;;;;;;;5118863;27;20198;-74
2023/09/17 12:20:30;;;;;;;26.35;23.25;;;;;;;;;;5152161;27;20186;-74
2023/09/17 12:23:03;;;;;;;23.98;21.48;;;;;;;;;;5132273;27;20187;-74
2023/09/17 12:25:28;;;;;;;22.65;19.55;;;;;;;;;;5144515;27;20197;-74
2023/09/17 12:27:54;;;;;;;20.88;18.73;;;;;;;;;;5132722;27;20500;-74
2023/09/17 12:30:20;;;;;;;23.27;20.85;;;;;;;;;;5130039;27;20218;-73
2023/09/17 12:32:45;;;;;;;23.92;21.35;;;;;;;;;;5123837;27;20280;-73
2023/09/17 12:35:13;;;;;;;21.52;18.80;;;;;;;;;;5139996;27;20261;-72
2023/09/17 12:37:38;;;;;;;22.73;20.33;;;;;;;;;;5140869;27;20639;-75
2023/09/17 12:40:07;;;;;;;24.00;21.60;;;;;;;;;;5130315;27;20186;-73
2023/09/17 12:42:33;;;;;;;21.02;18.88;;;;;;;;;;5124540;27;20310;-74
2023/09/17 12:44:59;;;;;;;22.90;20.50;;;;;;;;;;5134098;27;20688;-74
2023/09/17 12:47:25;;;;;;;21.13;18.92;;;;;;;;;;5137695;27;20236;-75
2023/09/17 12:49:53;;;;;;;24.30;18.48;;;;;;;;;;5135810;27;20314;-74
2023/09/17 12:52:18;;;;;;;20.75;18.52;;;;;;;;;;5114976;27;20633;-75
2023/09/17 12:54:44;;;;;;;19.70;17.63;;;;;;;;;;5138680;27;20315;-74
2023/09/17 12:57:09;;;;;;;20.25;17.30;;;;;;;;;;5121572;27;20287;-74
2023/09/17 12:59:37;;;;;;;17.67;15.77;;;;;;;;;;5113605;27;20179;-73
2023/09/17 13:02:05;;;;;;;23.20;16.58;;;;;;;;;;5120996;27;20235;-75
2023/09/17 13:04:38;;;;;;;17.35;15.50;;;;;;;;;;5114495;27;20734;-72
2023/09/17 13:07:14;;;;;;;17.45;15.63;;;;;;;;;;5108288;27;20191;-74
2023/09/17 13:09:40;;;;;;;18.35;15.85;;;;;;;;;;5107477;27;20218;-74
2023/09/17 13:12:06;;;;;;;16.35;14.73;;;;;;;;;;5110795;27;20634;-73
2023/09/17 13:14:35;;;;;;;17.92;14.75;;;;;;;;;;5111611;27;20244;-73
2023/09/17 13:17:00;;;;;;;16.10;12.90;;;;;;;;;;5126063;27;20639;-74
2023/09/17 13:19:26;;;;;;;14.32;12.80;;;;;;;;;;5120770;27;20268;-73
2023/09/17 13:21:51;;;;;;;13.63;12.15;;;;;;;;;;5108263;28;20641;-73
2023/09/17 13:24:18;;;;;;;17.20;13.90;;;;;;;;;;5108350;27;20195;-74
2023/09/17 13:26:43;;;;;;;16.40;12.48;;;;;;;;;;5120060;27;20194;-73
2023/09/17 13:29:09;;;;;;;13.77;11.65;;;;;;;;;;5117168;27;20203;-73
2023/09/17 13:31:36;;;;;;;13.32;11.93;;;;;;;;;;5118076;27;20210;-73
2023/09/17 13:34:01;;;;;;;11.70;10.50;;;;;;;;;;5113734;27;20183;-74
2023/09/17 13:36:28;;;;;;;13.73;12.20;;;;;;;;;;5107208;28;20300;-74
2023/09/17 13:38:54;;;;;;;13.68;12.27;;;;;;;;;;5110895;27;20194;-74
2023/09/17 13:41:20;;;;;;;18.65;14.13;;;;;;;;;;5112976;27;20312;-74
2023/09/17 13:43:45;;;;;;;15.40;12.98;;;;;;;;;;5108544;28;20540;-74
2023/09/17 13:46:17;;;;;;;15.98;12.18;;;;;;;;;;5111135;28;20258;-73
2023/09/17 13:48:43;;;;;;;15.80;13.25;;;;;;;;;;5112731;28;20186;-74
2023/09/17 13:51:09;;;;;;;15.98;13.35;;;;;;;;;;5113723;28;20274;-73
2023/09/17 13:53:35;;;;;;;15.45;13.25;;;;;;;;;;5110160;28;20195;-74
2023/09/17 13:56:00;;;;;;;17.50;14.20;;;;;;;;;;5117559;28;20226;-74
2023/09/17 13:58:25;;;;;;;17.58;13.90;;;;;;;;;;5129792;27;20193;-74
2023/09/17 14:00:51;;;;;;;16.27;14.15;;;;;;;;;;5132101;27;21021;-74
2023/09/17 14:03:16;;;;;;;16.50;13.73;;;;;;;;;;5132181;27;20190;-74
2023/09/17 14:05:43;;;;;;;16.55;13.23;;;;;;;;;;5120726;27;20190;-72
2023/09/17 14:08:09;;;;;;;14.65;12.30;;;;;;;;;;5143618;27;20186;-74
2023/09/17 14:10:35;;;;;;;14.80;12.10;;;;;;;;;;5131364;27;20642;-73
2023/09/17 14:13:04;;;;;;;14.40;12.07;;;;;;;;;;5135086;27;20620;-74